Current Conditions
Overcast
Conditions




Pressure
30.14 (inHG) - 1020.62 (mb)
Visibility

10.0 (mimiles) - 16.1 (km)
   Temperature
50  °F
10°C
46  °F
Dewpoint
88  %
 Humidity
   Wind Speed
5  mph
4  kts
8  km/h
2.2  m/s
   Wind Direction
 20°
North North
East
   Airport Data
KMYR
Location Myrtle Beach International 2 mi (3.22 km)
Metar :KMYR 240756Z AUTO 02004KT 10SM OVC055 10/08 A3014 RMK AO2 SLP204 T01000083
Fri 24th January 02:56 am
   Raw Metar Info
Raw METAR is the most common format in the world for the transmission of observational weather data. It is highly standardized through the International Civil Aviation Organization (ICAO), which allows it to be understood throughout most of the world.
   API Info
Data Provided by
https://www.checkwx.com/weather/KMYR
   © Info
CSS/SVG/PHP scripts were developed by weather34.com for use in the weather34 template © 2015-2020

Guide Info provided by Metar-Wikipedia